Terminal Aerodrome Forecast
Issued by NWS

Home | Current Version | Previous Version | Text Only | Print | Product List | Glossary On
Versions: 1 2 3 4 5 6 7 8 9 10 11 12 13 14 15 16 17 18 19 20 21 22
000
FTUS43 KIND 192320
TAFHUF
TAF
KHUF 192320Z 2000/2024 16005KT P6SM FEW250
     FM200200 16004KT 6SM BR FEW050
     FM200400 16004KT 1 1/2SM BR SCT015
     FM200600 16004KT 1/2SM FG BKN010
     FM200800 15004KT 1/4SM FG BKN008
     FM201300 13005KT 1SM BR BKN008
     FM201500 14007KT P6SM BKN015
     FM201700 15008KT P6SM BKN090=

USA.gov is the U.S. government's official web portal to all federal, state and local government web resources and services.